Terminal Aerodrome Forecast
Issued by NWS

Home | Current Version | Previous Version | Text Only | Print | Product List | Glossary On
Versions: 1 2 3 4 5 6 7 8 9 10 11 12 13 14 15 16 17 18 19 20 21 22 23 24 25 26
318
FTUS44 KLIX 230520
TAFHUM
TAF
KHUM 230520Z 2306/2406 00000KT P6SM FEW020
      TEMPO 2310/2313 5SM BR
     FM231300 00000KT P6SM SCT030 BKN110
     FM231500 01004KT P6SM FEW030 SCT040 PROB30 2315/2318 4SM TSRA
      BKN025CB
     FM231800 08005KT P6SM BKN035 PROB30 2318/2321 4SM TSRA BKN035CB
     FM232100 14004KT P6SM BKN035 PROB30 2321/2324 4SM TSRA BKN025CB
     FM240000 VRB03KT P6SM FEW035 SCT110=

USA.gov is the U.S. government's official web portal to all federal, state and local government web resources and services.